Time;durP1;ratioP1;P1;durP2;ratioP2;P2;SDS_P1;SDS_P2;PMS_P1;PMS_P2;Temp;Humidity;BMP_temperature;BMP_pressure;BME280_temperature;BME280_humidity;BME280_pressure;Samples;Min_cycle;Max_cycle;Signal;HPM_P1;HPM_P2
2023/03/25 00:01:08;;;;;;;46.75;6.13;;;;;;;;;;5079115;28;21408;-69
2023/03/25 00:03:37;;;;;;;36.00;5.35;;;;;;;;;;5083743;28;20460;-69
2023/03/25 00:06:06;;;;;;;43.08;6.70;;;;;;;;;;5088882;28;20044;-69
2023/03/25 00:08:33;;;;;;;43.35;5.50;;;;;;;;;;5087050;28;20039;-70
2023/03/25 00:11:03;;;;;;;33.05;4.25;;;;;;;;;;5087063;28;20063;-69
2023/03/25 00:13:31;;;;;;;33.63;4.30;;;;;;;;;;5082900;28;20059;-70
2023/03/25 00:15:59;;;;;;;32.75;4.93;;;;;;;;;;5083208;28;20045;-69
2023/03/25 00:18:28;;;;;;;40.00;5.80;;;;;;;;;;5067819;28;20052;-70
2023/03/25 00:20:56;;;;;;;32.22;4.85;;;;;;;;;;5082595;28;20074;-69
2023/03/25 00:23:24;;;;;;;42.63;5.50;;;;;;;;;;5084973;28;20101;-69
2023/03/25 00:25:51;;;;;;;39.80;5.80;;;;;;;;;;5085673;28;20044;-69
2023/03/25 00:28:20;;;;;;;39.65;5.75;;;;;;;;;;5067036;28;20091;-69
2023/03/25 00:30:47;;;;;;;41.63;5.43;;;;;;;;;;5083732;28;20119;-69
2023/03/25 00:33:15;;;;;;;36.45;5.05;;;;;;;;;;5080945;28;20047;-69
2023/03/25 00:35:43;;;;;;;38.17;5.40;;;;;;;;;;5065236;28;20037;-68
2023/03/25 00:38:10;;;;;;;48.80;5.50;;;;;;;;;;5088029;28;20062;-68
2023/03/25 00:40:38;;;;;;;51.13;6.03;;;;;;;;;;5086714;28;20048;-67
2023/03/25 00:43:05;;;;;;;55.50;5.93;;;;;;;;;;5086106;28;20044;-67
2023/03/25 00:45:34;;;;;;;53.15;5.60;;;;;;;;;;5080803;28;20044;-67
2023/03/25 00:48:01;;;;;;;49.97;5.63;;;;;;;;;;5067413;28;20052;-67
2023/03/25 00:50:29;;;;;;;51.60;5.82;;;;;;;;;;5084713;28;20055;-67
2023/03/25 00:52:56;;;;;;;63.53;6.18;;;;;;;;;;5085567;28;20040;-68
2023/03/25 00:55:23;;;;;;;41.35;5.07;;;;;;;;;;5085175;28;20071;-70
2023/03/25 00:57:50;;;;;;;37.63;4.57;;;;;;;;;;5086045;28;20048;-70
2023/03/25 01:00:19;;;;;;;38.17;5.35;;;;;;;;;;5084013;28;20052;-71
2023/03/25 01:02:52;;;;;;;37.78;4.30;;;;;;;;;;5081709;28;20051;-70
2023/03/25 01:05:20;;;;;;;34.15;4.63;;;;;;;;;;5081929;28;20135;-70
2023/03/25 01:07:50;;;;;;;36.97;4.82;;;;;;;;;;5082206;28;20044;-69
2023/03/25 01:10:17;;;;;;;45.63;5.15;;;;;;;;;;5083438;28;20055;-70
2023/03/25 01:12:45;;;;;;;40.67;5.75;;;;;;;;;;5080841;28;20054;-70
2023/03/25 01:15:13;;;;;;;34.92;4.05;;;;;;;;;;5079879;28;20080;-70
2023/03/25 01:17:40;;;;;;;44.70;4.63;;;;;;;;;;5082929;28;20072;-71
2023/03/25 01:20:09;;;;;;;45.15;4.78;;;;;;;;;;5085594;28;20055;-73
2023/03/25 01:22:37;;;;;;;45.45;4.82;;;;;;;;;;5064556;28;20459;-73
2023/03/25 01:25:04;;;;;;;40.15;4.57;;;;;;;;;;5079138;28;20163;-73
2023/03/25 01:27:31;;;;;;;36.42;5.38;;;;;;;;;;5065562;28;20063;-73
2023/03/25 01:29:58;;;;;;;41.83;5.82;;;;;;;;;;5082425;28;20051;-74
2023/03/25 01:32:26;;;;;;;42.75;5.03;;;;;;;;;;5084999;28;20052;-74
2023/03/25 01:34:53;;;;;;;51.40;5.97;;;;;;;;;;5085133;28;20040;-74
2023/03/25 01:37:24;;;;;;;39.53;5.80;;;;;;;;;;5087422;28;20044;-74
2023/03/25 01:39:51;;;;;;;32.55;4.55;;;;;;;;;;5087229;28;20051;-74
2023/03/25 01:42:18;;;;;;;38.25;4.88;;;;;;;;;;5082556;28;20059;-73
2023/03/25 01:45:06;;;;;;;48.10;5.45;;;;;;;;;;5087367;28;20051;-74
2023/03/25 01:47:34;;;;;;;39.90;4.35;;;;;;;;;;5085637;28;20051;-74
2023/03/25 01:50:01;;;;;;;46.55;6.65;;;;;;;;;;5084058;28;20502;-74
2023/03/25 01:52:30;;;;;;;34.17;5.60;;;;;;;;;;5088678;28;20126;-74
2023/03/25 01:54:59;;;;;;;48.40;6.45;;;;;;;;;;5084479;28;20559;-74
2023/03/25 01:57:29;;;;;;;38.65;5.13;;;;;;;;;;5081944;28;20045;-74
2023/03/25 01:59:57;;;;;;;43.42;5.32;;;;;;;;;;5081469;28;20726;-74
2023/03/25 02:02:35;;;;;;;42.00;6.22;;;;;;;;;;5082419;28;20036;-74
2023/03/25 02:05:06;;;;;;;42.60;5.10;;;;;;;;;;5081032;28;20064;-74
2023/03/25 02:07:36;;;;;;;45.85;5.45;;;;;;;;;;5074725;28;20122;-74
2023/03/25 02:10:05;;;;;;;41.45;5.82;;;;;;;;;;5066590;28;20060;-74
2023/03/25 02:12:32;;;;;;;41.97;5.47;;;;;;;;;;5073618;28;20067;-74
2023/03/25 02:15:04;;;;;;;40.97;7.20;;;;;;;;;;5081558;28;20044;-74
2023/03/25 02:17:34;;;;;;;41.25;5.47;;;;;;;;;;5066913;28;20099;-74
2023/03/25 02:20:16;;;;;;;44.22;5.88;;;;;;;;;;5083569;28;20136;-74
2023/03/25 02:23:06;;;;;;;46.70;5.97;;;;;;;;;;5065358;28;20044;-74
2023/03/25 02:25:44;;;;;;;43.53;5.57;;;;;;;;;;5078930;28;20040;-74
2023/03/25 02:28:24;;;;;;;36.75;5.97;;;;;;;;;;5081688;28;20113;-74
2023/03/25 02:31:10;;;;;;;52.33;7.03;;;;;;;;;;5067386;28;20410;-74
2023/03/25 02:33:51;;;;;;;44.20;6.40;;;;;;;;;;5091653;28;20071;-74
2023/03/25 02:36:35;;;;;;;43.58;6.80;;;;;;;;;;5090113;28;20040;-74
2023/03/25 02:39:05;;;;;;;45.63;6.82;;;;;;;;;;5086054;28;20056;-74
2023/03/25 02:41:37;;;;;;;48.42;7.45;;;;;;;;;;5088003;28;20052;-74
2023/03/25 02:44:07;;;;;;;46.63;6.43;;;;;;;;;;5083328;28;20032;-74
2023/03/25 02:46:36;;;;;;;51.08;6.30;;;;;;;;;;5085049;28;20097;-74
2023/03/25 02:49:05;;;;;;;46.40;6.22;;;;;;;;;;5082742;28;21146;-74
2023/03/25 02:51:34;;;;;;;49.92;6.63;;;;;;;;;;5065074;28;20491;-74
2023/03/25 02:54:04;;;;;;;40.58;5.82;;;;;;;;;;5087642;28;20475;-74
2023/03/25 02:56:33;;;;;;;53.58;6.47;;;;;;;;;;5090125;28;20151;-74
2023/03/25 02:59:01;;;;;;;50.38;6.63;;;;;;;;;;5066606;28;20139;-74
2023/03/25 03:01:28;;;;;;;46.70;5.85;;;;;;;;;;5088829;28;20474;-74
2023/03/25 03:03:56;;;;;;;40.17;5.88;;;;;;;;;;5086045;28;20054;-74
2023/03/25 03:06:25;;;;;;;46.20;5.63;;;;;;;;;;5083900;28;20147;-74
2023/03/25 03:09:07;;;;;;;47.28;6.05;;;;;;;;;;5082364;28;20059;-74
2023/03/25 03:11:40;;;;;;;41.10;5.68;;;;;;;;;;5089100;28;20052;-74
2023/03/25 03:14:17;;;;;;;37.47;4.82;;;;;;;;;;5069116;28;20044;-74
2023/03/25 03:16:48;;;;;;;42.33;5.40;;;;;;;;;;5086971;28;20054;-74
2023/03/25 03:19:22;;;;;;;40.97;4.97;;;;;;;;;;5067803;28;20570;-74
2023/03/25 03:21:55;;;;;;;37.67;4.75;;;;;;;;;;5087308;28;20044;-74
2023/03/25 03:24:25;;;;;;;43.63;4.70;;;;;;;;;;5082249;28;20051;-74
2023/03/25 03:26:57;;;;;;;42.83;5.95;;;;;;;;;;5083710;28;20054;-74
2023/03/25 03:29:27;;;;;;;45.97;5.05;;;;;;;;;;5081016;28;20044;-74
2023/03/25 03:31:59;;;;;;;44.13;5.20;;;;;;;;;;5088212;28;20493;-74
2023/03/25 03:34:29;;;;;;;38.78;4.80;;;;;;;;;;5087423;28;20410;-74
2023/03/25 03:36:57;;;;;;;41.78;5.82;;;;;;;;;;5086688;28;20046;-74
2023/03/25 03:39:26;;;;;;;39.33;4.55;;;;;;;;;;5084757;28;20055;-74
2023/03/25 03:41:59;;;;;;;45.42;5.78;;;;;;;;;;5087933;28;20066;-74
2023/03/25 03:44:27;;;;;;;39.63;5.28;;;;;;;;;;5077748;28;20055;-73
2023/03/25 03:46:57;;;;;;;31.40;4.93;;;;;;;;;;5087777;28;20052;-74
2023/03/25 03:49:28;;;;;;;34.45;4.68;;;;;;;;;;5070746;28;20468;-73
2023/03/25 03:51:58;;;;;;;42.28;5.78;;;;;;;;;;5089470;28;20048;-74
2023/03/25 03:54:27;;;;;;;36.70;5.25;;;;;;;;;;5069122;28;20501;-74
2023/03/25 03:56:57;;;;;;;38.50;5.65;;;;;;;;;;5085309;28;20037;-74
2023/03/25 03:59:28;;;;;;;38.13;5.20;;;;;;;;;;5086648;28;20097;-74
2023/03/25 04:01:59;;;;;;;35.10;5.43;;;;;;;;;;5086287;28;20040;-74
2023/03/25 04:04:26;;;;;;;42.00;5.43;;;;;;;;;;5073927;28;20060;-74
2023/03/25 04:06:57;;;;;;;44.50;5.13;;;;;;;;;;5088814;28;20044;-74
2023/03/25 04:09:26;;;;;;;30.48;5.07;;;;;;;;;;5079402;28;20055;-74
2023/03/25 04:11:57;;;;;;;36.95;5.57;;;;;;;;;;5087639;28;20052;-74
2023/03/25 04:14:24;;;;;;;36.42;5.68;;;;;;;;;;5082143;28;20814;-74
2023/03/25 04:16:52;;;;;;;33.08;5.30;;;;;;;;;;5090095;28;20044;-74
2023/03/25 04:19:19;;;;;;;36.40;6.10;;;;;;;;;;5068222;28;20048;-74
2023/03/25 04:21:47;;;;;;;38.22;5.15;;;;;;;;;;5082319;28;20047;-74
2023/03/25 04:24:18;;;;;;;43.55;4.95;;;;;;;;;;5068402;28;20542;-74
2023/03/25 04:26:46;;;;;;;35.17;5.85;;;;;;;;;;5087891;28;20467;-74
2023/03/25 04:29:15;;;;;;;38.67;5.18;;;;;;;;;;5080495;28;20074;-74
2023/03/25 04:31:44;;;;;;;42.30;6.40;;;;;;;;;;5088727;28;20040;-74
2023/03/25 04:34:13;;;;;;;45.55;4.47;;;;;;;;;;5082883;28;20044;-74
2023/03/25 04:36:41;;;;;;;39.88;5.18;;;;;;;;;;5085598;28;20514;-73
2023/03/25 04:39:10;;;;;;;31.13;4.72;;;;;;;;;;5082454;28;20044;-74
2023/03/25 04:41:38;;;;;;;45.30;5.32;;;;;;;;;;5082842;28;20056;-74
2023/03/25 04:44:07;;;;;;;40.35;6.07;;;;;;;;;;5082754;28;20606;-74
2023/03/25 04:46:36;;;;;;;38.90;5.93;;;;;;;;;;5089013;28;20044;-73
2023/03/25 04:49:04;;;;;;;32.38;4.20;;;;;;;;;;5087546;28;20514;-73
2023/03/25 04:51:32;;;;;;;31.77;4.82;;;;;;;;;;5086590;28;20052;-74
2023/03/25 04:53:59;;;;;;;37.45;5.15;;;;;;;;;;5087735;28;20392;-74
2023/03/25 04:56:27;;;;;;;35.22;4.32;;;;;;;;;;5087868;28;20048;-74
2023/03/25 04:58:54;;;;;;;29.95;4.90;;;;;;;;;;5084248;28;20491;-74
2023/03/25 05:01:29;;;;;;;35.90;5.50;;;;;;;;;;5087359;28;20052;-73
2023/03/25 05:04:04;;;;;;;33.42;5.28;;;;;;;;;;5066787;28;20105;-74
2023/03/25 05:06:32;;;;;;;33.45;5.50;;;;;;;;;;5080833;28;20182;-74
2023/03/25 05:09:02;;;;;;;34.60;5.05;;;;;;;;;;5077094;28;20503;-74
2023/03/25 05:11:30;;;;;;;37.03;4.32;;;;;;;;;;5082152;28;20762;-74
2023/03/25 05:13:57;;;;;;;30.33;4.75;;;;;;;;;;5066528;28;20052;-73
2023/03/25 05:16:25;;;;;;;35.75;5.03;;;;;;;;;;5084575;28;20054;-74
2023/03/25 05:18:53;;;;;;;38.40;5.72;;;;;;;;;;5066547;28;20079;-74
2023/03/25 05:21:21;;;;;;;26.75;4.22;;;;;;;;;;5062581;28;20047;-73
2023/03/25 05:23:49;;;;;;;26.17;4.68;;;;;;;;;;5085038;28;20051;-73
2023/03/25 05:26:16;;;;;;;35.40;4.63;;;;;;;;;;5087015;28;20512;-74
2023/03/25 05:28:43;;;;;;;31.23;4.20;;;;;;;;;;5086482;28;20052;-73
2023/03/25 05:31:11;;;;;;;35.10;4.32;;;;;;;;;;5086180;28;20051;-73
2023/03/25 05:33:41;;;;;;;35.30;4.68;;;;;;;;;;5086006;28;20135;-74
2023/03/25 05:36:09;;;;;;;40.55;3.85;;;;;;;;;;5084911;28;20048;-74
2023/03/25 05:38:40;;;;;;;37.70;5.25;;;;;;;;;;5079759;28;20503;-74
2023/03/25 05:41:09;;;;;;;26.33;4.65;;;;;;;;;;5086141;28;20059;-74
2023/03/25 05:43:37;;;;;;;29.55;4.22;;;;;;;;;;5058721;28;20060;-74
2023/03/25 05:46:04;;;;;;;30.75;4.72;;;;;;;;;;5087047;28;20048;-73
2023/03/25 05:48:32;;;;;;;36.47;5.00;;;;;;;;;;5076655;28;20047;-74
2023/03/25 05:50:59;;;;;;;36.15;4.60;;;;;;;;;;5082401;28;20502;-74
2023/03/25 05:53:29;;;;;;;36.97;5.00;;;;;;;;;;5077553;28;20052;-73
2023/03/25 05:55:58;;;;;;;30.50;4.25;;;;;;;;;;5063725;28;20053;-74
2023/03/25 05:58:25;;;;;;;37.17;4.60;;;;;;;;;;5081947;28;20096;-74
2023/03/25 06:00:53;;;;;;;34.15;5.55;;;;;;;;;;5087110;28;20066;-73
2023/03/25 06:03:20;;;;;;;32.10;4.50;;;;;;;;;;5085648;28;20478;-74
2023/03/25 06:05:48;;;;;;;27.60;4.57;;;;;;;;;;5077854;28;20145;-74
2023/03/25 06:08:16;;;;;;;32.60;4.55;;;;;;;;;;5069402;28;20561;-75
2023/03/25 06:10:44;;;;;;;34.05;4.95;;;;;;;;;;5087103;28;20105;-75
2023/03/25 06:13:13;;;;;;;28.95;4.03;;;;;;;;;;5082796;28;20376;-75
2023/03/25 06:15:40;;;;;;;32.47;5.25;;;;;;;;;;5087641;28;20129;-73
2023/03/25 06:18:09;;;;;;;37.53;4.72;;;;;;;;;;5085589;28;20074;-73
2023/03/25 06:20:36;;;;;;;40.17;4.50;;;;;;;;;;5089707;28;20045;-73
2023/03/25 06:23:03;;;;;;;30.70;4.57;;;;;;;;;;5091458;28;20044;-74
2023/03/25 06:25:31;;;;;;;35.10;4.50;;;;;;;;;;5069758;28;20040;-74
2023/03/25 06:28:01;;;;;;;26.50;4.57;;;;;;;;;;5090186;28;20044;-74
2023/03/25 06:30:30;;;;;;;38.33;4.88;;;;;;;;;;5084972;28;20480;-74
2023/03/25 06:33:01;;;;;;;35.05;3.78;;;;;;;;;;5083825;28;20139;-74
2023/03/25 06:35:29;;;;;;;26.38;4.28;;;;;;;;;;5084985;28;20150;-74
2023/03/25 06:37:56;;;;;;;25.65;4.20;;;;;;;;;;5090291;28;20040;-77
2023/03/25 06:40:24;;;;;;;30.50;4.28;;;;;;;;;;5089977;28;20048;-73
2023/03/25 06:42:51;;;;;;;29.52;4.13;;;;;;;;;;5089216;28;20464;-73
2023/03/25 06:45:19;;;;;;;32.70;4.35;;;;;;;;;;5066667;28;20126;-74
2023/03/25 06:47:47;;;;;;;31.20;3.80;;;;;;;;;;5086770;28;20058;-74
2023/03/25 06:50:15;;;;;;;34.33;4.60;;;;;;;;;;5086804;28;20444;-72
2023/03/25 06:52:42;;;;;;;28.70;3.88;;;;;;;;;;5086173;28;20048;-72
2023/03/25 06:55:09;;;;;;;38.72;5.28;;;;;;;;;;5083646;28;20053;-72
2023/03/25 06:57:37;;;;;;;46.83;5.18;;;;;;;;;;5069745;28;20052;-74
2023/03/25 07:00:05;;;;;;;33.70;4.88;;;;;;;;;;5080441;28;20503;-75
2023/03/25 07:02:33;;;;;;;32.05;3.95;;;;;;;;;;5089213;28;20052;-77
2023/03/25 07:05:01;;;;;;;37.35;5.43;;;;;;;;;;5059983;28;20159;-76
2023/03/25 07:07:28;;;;;;;41.85;4.32;;;;;;;;;;5088431;28;20052;-76
2023/03/25 07:09:56;;;;;;;34.38;3.83;;;;;;;;;;5063142;28;20508;-75
2023/03/25 07:12:23;;;;;;;38.47;4.00;;;;;;;;;;5089570;28;20495;-74
2023/03/25 07:14:52;;;;;;;34.20;4.72;;;;;;;;;;5078313;28;20048;-74
2023/03/25 07:17:19;;;;;;;36.05;5.22;;;;;;;;;;5087273;28;20076;-74
2023/03/25 07:19:46;;;;;;;40.55;4.85;;;;;;;;;;5088294;28;20046;-74
2023/03/25 07:22:15;;;;;;;26.63;4.28;;;;;;;;;;5090537;28;20052;-73
2023/03/25 07:24:43;;;;;;;26.65;4.40;;;;;;;;;;5085583;28;20047;-74
2023/03/25 07:27:11;;;;;;;32.78;4.63;;;;;;;;;;5085813;28;20055;-74
2023/03/25 07:29:38;;;;;;;38.90;3.75;;;;;;;;;;5083242;28;20052;-73
2023/03/25 07:32:06;;;;;;;31.27;3.95;;;;;;;;;;5086037;28;20376;-73
2023/03/25 07:34:33;;;;;;;37.67;5.05;;;;;;;;;;5084016;28;20052;-74
2023/03/25 07:37:00;;;;;;;39.13;4.15;;;;;;;;;;5077901;28;20502;-74
2023/03/25 07:39:29;;;;;;;28.40;5.10;;;;;;;;;;5088423;28;20121;-74
2023/03/25 07:41:56;;;;;;;43.22;3.92;;;;;;;;;;5086263;28;20055;-75
2023/03/25 07:44:24;;;;;;;32.47;4.28;;;;;;;;;;5067116;28;20048;-75
2023/03/25 07:46:51;;;;;;;31.38;3.90;;;;;;;;;;5070360;28;20048;-75
2023/03/25 07:49:18;;;;;;;35.47;3.42;;;;;;;;;;5088657;28;20054;-76
2023/03/25 07:51:46;;;;;;;40.05;4.05;;;;;;;;;;5089069;28;20066;-76
2023/03/25 07:54:13;;;;;;;43.22;4.15;;;;;;;;;;5086178;28;20047;-76
2023/03/25 07:56:42;;;;;;;45.00;4.68;;;;;;;;;;5069400;28;20063;-75
2023/03/25 07:59:09;;;;;;;39.95;4.47;;;;;;;;;;5085478;28;20056;-75
2023/03/25 08:01:36;;;;;;;37.95;4.75;;;;;;;;;;5088180;28;20048;-74
2023/03/25 08:04:04;;;;;;;39.85;4.38;;;;;;;;;;5089364;28;20044;-74
2023/03/25 08:06:31;;;;;;;37.08;4.68;;;;;;;;;;5080172;28;20076;-74
2023/03/25 08:08:58;;;;;;;41.58;5.20;;;;;;;;;;5085726;28;20044;-74
2023/03/25 08:11:26;;;;;;;32.10;4.10;;;;;;;;;;5080263;28;20051;-74
2023/03/25 08:13:54;;;;;;;29.35;4.88;;;;;;;;;;5082991;28;20127;-74
2023/03/25 08:16:22;;;;;;;41.83;4.85;;;;;;;;;;5077105;28;20076;-74
2023/03/25 08:18:51;;;;;;;36.90;5.30;;;;;;;;;;5080364;28;20055;-74
2023/03/25 08:21:23;;;;;;;46.58;4.80;;;;;;;;;;5086720;28;20134;-73
2023/03/25 08:23:51;;;;;;;40.55;4.97;;;;;;;;;;5086072;28;20521;-74
2023/03/25 08:26:18;;;;;;;28.65;3.78;;;;;;;;;;5088384;28;20044;-73
2023/03/25 08:28:46;;;;;;;32.22;3.55;;;;;;;;;;5084764;28;20394;-73
2023/03/25 08:31:14;;;;;;;33.38;5.18;;;;;;;;;;5080079;28;20044;-73
2023/03/25 08:33:42;;;;;;;30.65;4.47;;;;;;;;;;5083580;28;20485;-73
2023/03/25 08:36:12;;;;;;;33.03;3.72;;;;;;;;;;5087508;28;20189;-73
2023/03/25 08:38:40;;;;;;;31.05;4.63;;;;;;;;;;5082960;28;20058;-73
2023/03/25 08:41:08;;;;;;;34.40;4.65;;;;;;;;;;5086519;28;20051;-73
2023/03/25 08:43:35;;;;;;;28.23;3.60;;;;;;;;;;5084492;28;20392;-73
2023/03/25 08:46:02;;;;;;;31.17;4.28;;;;;;;;;;5085165;28;20056;-74
2023/03/25 08:48:31;;;;;;;28.17;3.70;;;;;;;;;;5062234;28;20109;-73
2023/03/25 08:50:58;;;;;;;32.47;4.15;;;;;;;;;;5087557;28;20040;-73
2023/03/25 08:53:26;;;;;;;32.72;3.90;;;;;;;;;;5086410;28;20078;-73
2023/03/25 08:55:54;;;;;;;26.83;3.90;;;;;;;;;;5084333;28;20040;-73
2023/03/25 08:58:22;;;;;;;34.75;5.22;;;;;;;;;;5083297;28;20047;-73
2023/03/25 09:00:53;;;;;;;24.58;3.47;;;;;;;;;;5088556;28;20052;-73
2023/03/25 09:03:20;;;;;;;29.15;3.80;;;;;;;;;;5086218;28;20502;-73
2023/03/25 09:05:49;;;;;;;24.88;3.75;;;;;;;;;;5080440;28;20121;-73
2023/03/25 09:08:16;;;;;;;30.90;4.25;;;;;;;;;;5081209;28;20048;-73
2023/03/25 09:10:44;;;;;;;26.73;4.28;;;;;;;;;;5087248;28;20052;-73
2023/03/25 09:13:11;;;;;;;24.92;3.65;;;;;;;;;;5081344;28;20067;-72
2023/03/25 09:15:38;;;;;;;28.67;4.25;;;;;;;;;;5088824;28;20532;-72
2023/03/25 09:18:05;;;;;;;27.75;3.50;;;;;;;;;;5078909;28;20055;-72
2023/03/25 09:20:33;;;;;;;28.92;4.53;;;;;;;;;;5082865;28;20055;-72
2023/03/25 09:23:02;;;;;;;30.85;4.38;;;;;;;;;;5076654;28;20399;-72
2023/03/25 09:25:29;;;;;;;25.38;4.30;;;;;;;;;;5078823;28;20044;-72
2023/03/25 09:27:56;;;;;;;42.58;4.78;;;;;;;;;;5088407;28;20050;-73
2023/03/25 09:30:23;;;;;;;39.35;4.50;;;;;;;;;;5086670;28;20040;-72
2023/03/25 09:32:51;;;;;;;30.40;4.22;;;;;;;;;;5088963;28;20048;-72
2023/03/25 09:35:18;;;;;;;29.98;3.88;;;;;;;;;;5085693;28;20059;-72
2023/03/25 09:37:45;;;;;;;27.23;3.50;;;;;;;;;;5079578;28;20044;-72
2023/03/25 09:40:15;;;;;;;29.30;4.82;;;;;;;;;;5078479;28;20062;-72
2023/03/25 09:42:57;;;;;;;30.88;3.75;;;;;;;;;;5083252;28;20040;-72
2023/03/25 09:45:29;;;;;;;19.63;3.28;;;;;;;;;;5083867;28;20048;-72
2023/03/25 09:47:58;;;;;;;38.97;4.95;;;;;;;;;;5081468;28;20131;-71
2023/03/25 09:50:26;;;;;;;32.05;4.00;;;;;;;;;;5083415;28;20043;-72
2023/03/25 09:52:57;;;;;;;37.55;4.13;;;;;;;;;;5071893;28;20052;-72
2023/03/25 09:55:27;;;;;;;35.50;3.88;;;;;;;;;;5083820;28;20487;-72
2023/03/25 09:57:57;;;;;;;29.33;4.15;;;;;;;;;;5076561;28;20049;-72
2023/03/25 10:00:26;;;;;;;38.03;4.57;;;;;;;;;;5081871;28;20044;-72
2023/03/25 10:02:58;;;;;;;31.63;5.07;;;;;;;;;;5080515;28;20122;-72
2023/03/25 10:05:41;;;;;;;34.72;5.07;;;;;;;;;;5086398;28;20066;-72
2023/03/25 10:08:13;;;;;;;27.92;4.50;;;;;;;;;;5083338;28;20045;-72
2023/03/25 10:10:46;;;;;;;27.38;4.13;;;;;;;;;;5084247;28;20052;-72
2023/03/25 10:13:19;;;;;;;26.45;4.88;;;;;;;;;;5074915;28;20092;-72
2023/03/25 10:15:49;;;;;;;30.58;4.65;;;;;;;;;;5081646;28;20484;-72
2023/03/25 10:18:27;;;;;;;29.13;4.18;;;;;;;;;;5078531;28;20100;-72
2023/03/25 10:21:01;;;;;;;29.10;4.60;;;;;;;;;;5083298;28;20051;-72
2023/03/25 10:23:34;;;;;;;32.50;4.20;;;;;;;;;;5078950;28;20049;-72
2023/03/25 10:26:01;;;;;;;;;;;;;;;;;;5079489;28;20052;-72
2023/03/25 10:28:33;;;;;;;32.97;3.88;;;;;;;;;;5084944;28;19926;-72
2023/03/25 10:31:01;;;;;;;36.05;5.15;;;;;;;;;;5082310;28;20504;-72
2023/03/25 10:33:33;;;;;;;42.45;4.72;;;;;;;;;;5062990;28;20399;-72
2023/03/25 10:36:02;;;;;;;35.43;4.73;;;;;;;;;;5078392;28;20044;-72
2023/03/25 10:38:30;;;;;;;31.45;4.43;;;;;;;;;;5082563;28;20415;-72
2023/03/25 10:41:03;;;;;;;29.40;4.70;;;;;;;;;;5086956;28;20040;-72
2023/03/25 10:43:34;;;;;;;34.83;5.47;;;;;;;;;;5081083;28;20047;-72
2023/03/25 10:46:05;;;;;;;30.17;4.03;;;;;;;;;;5063281;28;20052;-72
2023/03/25 10:48:33;;;;;;;30.80;4.22;;;;;;;;;;5080638;28;20044;-72
2023/03/25 10:51:04;;;;;;;28.33;5.18;;;;;;;;;;5081830;28;20051;-72
2023/03/25 10:53:31;;;;;;;27.48;4.43;;;;;;;;;;5085292;28;20062;-72
2023/03/25 10:56:03;;;;;;;30.38;5.50;;;;;;;;;;5062822;28;20051;-72
2023/03/25 10:58:30;;;;;;;35.47;5.38;;;;;;;;;;5085992;28;20052;-72
2023/03/25 11:01:00;;;;;;;34.45;4.60;;;;;;;;;;5082467;28;20051;-72
2023/03/25 11:03:30;;;;;;;32.30;4.65;;;;;;;;;;5087729;28;20097;-72
2023/03/25 11:05:57;;;;;;;32.00;4.53;;;;;;;;;;5088283;28;20063;-72
2023/03/25 11:08:26;;;;;;;26.27;4.82;;;;;;;;;;5078401;28;20566;-72
2023/03/25 11:10:56;;;;;;;29.80;5.00;;;;;;;;;;5072056;28;20052;-72
2023/03/25 11:13:24;;;;;;;25.85;4.38;;;;;;;;;;5077457;28;20056;-72
2023/03/25 11:15:53;;;;;;;28.45;4.90;;;;;;;;;;5085476;28;20135;-73
2023/03/25 11:18:25;;;;;;;28.88;4.78;;;;;;;;;;5089242;28;20134;-72
2023/03/25 11:20:53;;;;;;;25.38;4.22;;;;;;;;;;5089371;28;20044;-72
2023/03/25 11:23:25;;;;;;;22.00;4.53;;;;;;;;;;5088760;28;20044;-72
2023/03/25 11:25:53;;;;;;;27.58;4.88;;;;;;;;;;5088306;28;20058;-72
2023/03/25 11:28:26;;;;;;;29.85;4.10;;;;;;;;;;5080347;28;20044;-72
2023/03/25 11:31:06;;;;;;;25.63;4.65;;;;;;;;;;5084393;28;20044;-72
2023/03/25 11:33:36;;;;;;;22.40;3.58;;;;;;;;;;5081943;28;20047;-72
2023/03/25 11:36:27;;;;;;;25.35;3.65;;;;;;;;;;5083158;28;20048;-72
2023/03/25 11:38:59;;;;;;;27.55;4.47;;;;;;;;;;5068890;28;20052;-72
2023/03/25 11:41:31;;;;;;;27.50;4.63;;;;;;;;;;5079589;28;20044;-72
2023/03/25 11:43:58;;;;;;;25.20;3.78;;;;;;;;;;5063401;28;20056;-72
2023/03/25 11:46:25;;;;;;;31.02;4.53;;;;;;;;;;5082647;28;20054;-72
2023/03/25 11:48:54;;;;;;;28.02;3.97;;;;;;;;;;5086053;28;20051;-72
2023/03/25 11:51:23;;;;;;;35.05;4.95;;;;;;;;;;5086845;28;20036;-72
2023/03/25 11:53:55;;;;;;;29.02;4.47;;;;;;;;;;5086931;28;20052;-72
2023/03/25 11:56:24;;;;;;;33.05;4.43;;;;;;;;;;5081697;28;20052;-72
2023/03/25 11:58:51;;;;;;;26.40;4.32;;;;;;;;;;5083257;28;20498;-72
2023/03/25 12:01:24;;;;;;;30.08;3.95;;;;;;;;;;5065785;28;20508;-72
2023/03/25 12:03:53;;;;;;;22.38;3.92;;;;;;;;;;5082901;28;20072;-72
2023/03/25 12:06:22;;;;;;;34.83;3.78;;;;;;;;;;5062049;28;20060;-72
2023/03/25 12:08:51;;;;;;;31.30;4.28;;;;;;;;;;5067049;28;20055;-72
2023/03/25 12:11:21;;;;;;;32.85;4.25;;;;;;;;;;5074793;28;20049;-72
2023/03/25 12:13:52;;;;;;;22.75;3.90;;;;;;;;;;5089683;28;20051;-72
2023/03/25 12:16:23;;;;;;;26.48;4.90;;;;;;;;;;5082422;28;20044;-72
2023/03/25 12:19:02;;;;;;;25.05;4.32;;;;;;;;;;5082988;28;20094;-72
2023/03/25 12:21:39;;;;;;;30.23;3.60;;;;;;;;;;5086829;28;20056;-72
2023/03/25 12:24:12;;;;;;;32.45;4.43;;;;;;;;;;5081524;28;20103;-72
2023/03/25 12:26:44;;;;;;;30.85;4.82;;;;;;;;;;5083518;28;20044;-72
2023/03/25 12:29:18;;;;;;;29.00;4.22;;;;;;;;;;5083656;28;20048;-72
2023/03/25 12:31:52;;;;;;;33.50;5.32;;;;;;;;;;5085086;28;20083;-72
2023/03/25 12:34:25;;;;;;;28.50;4.47;;;;;;;;;;5083193;28;20066;-73
2023/03/25 12:37:00;;;;;;;37.47;4.65;;;;;;;;;;5080496;28;20098;-73
2023/03/25 12:39:43;;;;;;;41.85;5.47;;;;;;;;;;5063659;28;20087;-74
2023/03/25 12:42:16;;;;;;;17.75;2.80;;;;;;;;;;5064602;28;20052;-75
2023/03/25 12:44:51;;;;;;;24.88;3.65;;;;;;;;;;5061814;28;20534;-76
2023/03/25 12:47:24;;;;;;;20.27;2.55;;;;;;;;;;5079886;28;20044;-74
2023/03/25 12:49:57;;;;;;;18.67;2.13;;;;;;;;;;5086778;28;20052;-75
2023/03/25 12:52:32;;;;;;;14.88;1.77;;;;;;;;;;5067458;28;20408;-75
2023/03/25 12:55:04;;;;;;;13.98;1.48;;;;;;;;;;5087824;28;20055;-74
2023/03/25 12:57:44;;;;;;;13.57;1.40;;;;;;;;;;5070901;28;20055;-74
2023/03/25 13:00:32;;;;;;;17.25;1.85;;;;;;;;;;5064851;28;20054;-74
2023/03/25 13:03:12;;;;;;;12.85;1.42;;;;;;;;;;5073181;28;20051;-75
2023/03/25 13:05:41;;;;;;;7.68;0.90;;;;;;;;;;5055712;28;20055;-75
2023/03/25 13:08:12;;;;;;;33.35;4.50;;;;;;;;;;5066442;28;20526;-76
2023/03/25 13:10:41;;;;;;;48.45;4.32;;;;;;;;;;5062093;28;20055;-75
2023/03/25 13:13:11;;;;;;;36.65;5.10;;;;;;;;;;5057253;28;20048;-76
2023/03/25 13:15:41;;;;;;;34.38;4.20;;;;;;;;;;5067761;28;20058;-76
2023/03/25 13:18:11;;;;;;;35.30;4.20;;;;;;;;;;5059655;28;20045;-76
2023/03/25 13:20:42;;;;;;;18.10;2.47;;;;;;;;;;5066341;28;20513;-76
2023/03/25 13:23:12;;;;;;;5.68;1.00;;;;;;;;;;5067910;28;20052;-76
2023/03/25 13:25:43;;;;;;;7.65;0.80;;;;;;;;;;5060013;28;20053;-76
2023/03/25 13:28:13;;;;;;;23.58;3.30;;;;;;;;;;5059670;28;20060;-76
2023/03/25 13:30:42;;;;;;;23.15;2.58;;;;;;;;;;5061057;28;20094;-76
2023/03/25 13:33:13;;;;;;;21.38;3.75;;;;;;;;;;5060448;28;20530;-75
2023/03/25 13:35:43;;;;;;;28.33;4.95;;;;;;;;;;5061905;28;20060;-75
2023/03/25 13:38:15;;;;;;;20.58;3.35;;;;;;;;;;5059553;28;20060;-75
2023/03/25 13:40:47;;;;;;;23.70;3.25;;;;;;;;;;5061479;28;20064;-75
2023/03/25 13:43:18;;;;;;;23.98;3.80;;;;;;;;;;5057511;28;20052;-75
2023/03/25 13:45:48;;;;;;;23.60;2.90;;;;;;;;;;5059774;28;20072;-75
2023/03/25 13:48:18;;;;;;;24.25;3.58;;;;;;;;;;5063126;28;20044;-75
2023/03/25 13:50:45;;;;;;;30.23;4.07;;;;;;;;;;5063282;28;20131;-75
2023/03/25 13:53:18;;;;;;;30.85;3.70;;;;;;;;;;5066790;28;20722;-75
2023/03/25 13:55:46;;;;;;;;;;;;;;;;;;5056586;28;20044;-75
2023/03/25 13:58:18;;;;;;;25.27;3.15;;;;;;;;;;5066131;28;19927;-75
2023/03/25 14:00:55;;;;;;;23.80;4.07;;;;;;;;;;5059638;28;20045;-75
2023/03/25 14:03:46;;;;;;;25.95;3.10;;;;;;;;;;5060600;28;20135;-75
2023/03/25 14:06:28;;;;;;;20.45;3.55;;;;;;;;;;5072570;28;20056;-75
2023/03/25 14:09:09;;;;;;;20.00;2.83;;;;;;;;;;5071512;28;20047;-75
2023/03/25 14:11:39;;;;;;;22.73;3.17;;;;;;;;;;5065340;28;20097;-75
2023/03/25 14:14:08;;;;;;;22.95;3.35;;;;;;;;;;5086051;28;20075;-75
2023/03/25 14:16:36;;;;;;;24.02;3.15;;;;;;;;;;5081038;28;20072;-75
2023/03/25 14:19:04;;;;;;;25.33;4.10;;;;;;;;;;5081468;28;20054;-75
2023/03/25 14:21:35;;;;;;;19.63;3.47;;;;;;;;;;5079860;28;20048;-75
2023/03/25 14:24:10;;;;;;;14.25;2.45;;;;;;;;;;5080121;28;20187;-75
2023/03/25 14:26:41;;;;;;;24.92;2.90;;;;;;;;;;5085025;28;20043;-75
2023/03/25 14:29:10;;;;;;;25.27;3.53;;;;;;;;;;5085721;28;20055;-75
2023/03/25 14:31:37;;;;;;;27.02;3.45;;;;;;;;;;5085786;28;20070;-74
2023/03/25 14:34:14;;;;;;;19.55;3.20;;;;;;;;;;5082746;28;20074;-74
2023/03/25 14:37:03;;;;;;;18.70;2.60;;;;;;;;;;5087443;28;20043;-75
2023/03/25 14:39:41;;;;;;;24.88;3.30;;;;;;;;;;5082298;28;20121;-74
2023/03/25 14:42:13;;;;;;;19.10;2.10;;;;;;;;;;5069044;28;20064;-75
2023/03/25 14:44:41;;;;;;;22.95;3.17;;;;;;;;;;5079712;28;20051;-74
2023/03/25 14:47:29;;;;;;;21.40;2.72;;;;;;;;;;5088186;28;20109;-75